createdAt,value
2018-01-25T00:02:00.682Z,19.10
2018-01-25T00:04:28.975Z,16.73
2018-01-25T00:06:58.417Z,24.30
2018-01-25T00:09:30.052Z,20.27
2018-01-25T00:12:02.266Z,24.67
2018-01-25T00:14:32.650Z,27.10
2018-01-25T00:17:01.914Z,16.77
2018-01-25T00:19:30.212Z,20.23
2018-01-25T00:22:02.307Z,25.80
2018-01-25T00:24:31.376Z,20.33
2018-01-25T00:27:01.687Z,19.77
2018-01-25T00:29:31.587Z,22.00
2018-01-25T00:32:00.857Z,24.27
2018-01-25T00:34:31.338Z,20.53
2018-01-25T00:37:09.124Z,23.70
2018-01-25T00:39:44.877Z,19.33
2018-01-25T00:42:13.757Z,20.23
2018-01-25T00:44:42.802Z,17.77
2018-01-25T00:47:11.390Z,20.10
2018-01-25T00:49:39.677Z,26.27
2018-01-25T00:52:11.181Z,17.67
2018-01-25T00:54:41.645Z,20.57
2018-01-25T00:57:52.122Z,17.97
2018-01-25T01:00:23.556Z,20.97
2018-01-25T01:02:53.271Z,23.73
2018-01-25T01:05:26.157Z,18.80
2018-01-25T01:07:55.188Z,24.70
2018-01-25T01:10:26.238Z,17.90
2018-01-25T01:12:54.528Z,16.80
2018-01-25T01:15:26.829Z,22.20
2018-01-25T01:17:55.456Z,16.60
2018-01-25T01:20:25.504Z,18.57
2018-01-25T01:22:59.386Z,20.13
2018-01-25T01:25:29.926Z,22.93
2018-01-25T01:27:58.584Z,23.47
2018-01-25T01:30:28.887Z,22.77
2018-01-25T01:32:57.229Z,19.77
2018-01-25T01:35:26.628Z,20.97
2018-01-25T01:37:56.174Z,14.20
2018-01-25T01:40:31.530Z,26.90
2018-01-25T01:43:01.885Z,16.13
2018-01-25T01:45:32.045Z,18.57
2018-01-25T01:48:01.822Z,16.53
2018-01-25T01:50:31.056Z,28.57
2018-01-25T01:53:00.698Z,17.73
2018-01-25T01:55:33.048Z,18.90
2018-01-25T01:58:01.376Z,17.83
2018-01-25T02:00:31.687Z,17.53
2018-01-25T02:03:07.242Z,26.00
2018-01-25T02:05:38.922Z,21.90
2018-01-25T02:08:10.167Z,24.20
2018-01-25T02:10:41.278Z,18.13
2018-01-25T02:13:09.589Z,16.93
2018-01-25T02:15:38.190Z,21.27
2018-01-25T02:18:08.218Z,14.63
2018-01-25T02:20:38.264Z,23.10
2018-01-25T02:23:10.846Z,18.43
2018-01-25T02:25:43.710Z,23.83
2018-01-25T02:28:14.152Z,19.27
2018-01-25T02:30:43.828Z,24.00
2018-01-25T02:33:13.287Z,17.37
2018-01-25T02:35:42.135Z,19.97
2018-01-25T02:38:10.875Z,17.27
2018-01-25T02:40:41.646Z,17.67
2018-01-25T02:43:15.485Z,19.53
2018-01-25T02:45:44.698Z,15.60
2018-01-25T02:48:15.181Z,17.43
2018-01-25T02:50:43.448Z,16.13
2018-01-25T02:53:12.382Z,17.93
2018-01-25T02:55:41.733Z,13.00
2018-01-25T02:58:11.089Z,16.07
2018-01-25T03:00:43.255Z,21.87
2018-01-25T03:03:11.553Z,25.77
2018-01-25T03:05:39.834Z,18.47
2018-01-25T03:08:09.537Z,24.60
2018-01-25T03:10:38.431Z,18.77
2018-01-25T03:13:10.728Z,22.83
2018-01-25T03:15:42.648Z,24.60
2018-01-25T03:18:14.529Z,17.47
2018-01-25T03:20:43.143Z,19.27
2018-01-25T03:23:12.568Z,21.93
2018-01-25T03:25:42.658Z,22.77
2018-01-25T03:28:13.435Z,22.70
2018-01-25T03:30:41.711Z,25.87
2018-01-25T03:33:11.672Z,19.53
2018-01-25T03:35:44.329Z,23.83
2018-01-25T03:38:14.868Z,20.00
2018-01-25T03:40:44.017Z,29.10
2018-01-25T03:43:12.711Z,24.13
2018-01-25T03:45:41.460Z,19.00
2018-01-25T03:48:10.174Z,17.90
2018-01-25T03:50:38.676Z,17.90
2018-01-25T03:53:07.572Z,21.03
2018-01-25T03:55:39.653Z,30.83
2018-01-25T03:58:10.053Z,18.97
2018-01-25T04:00:38.350Z,21.00
2018-01-25T04:03:06.939Z,24.50
2018-01-25T04:05:40.504Z,16.90
2018-01-25T04:08:11.909Z,22.87
2018-01-25T04:10:46.450Z,26.03
2018-01-25T04:13:21.896Z,20.30
2018-01-25T04:15:57.234Z,18.70
2018-01-25T04:18:28.395Z,21.13
2018-01-25T04:20:58.907Z,24.17
2018-01-25T04:23:33.128Z,20.90
2018-01-25T04:26:06.718Z,23.20
2018-01-25T04:28:36.747Z,23.90
2018-01-25T04:31:07.573Z,17.57
2018-01-25T04:33:35.851Z,21.70
2018-01-25T04:36:05.598Z,17.80
2018-01-25T04:38:34.130Z,22.70
2018-01-25T04:41:05.406Z,18.97
2018-01-25T04:43:39.285Z,14.53
2018-01-25T04:46:07.604Z,14.67
2018-01-25T04:48:36.533Z,23.30
2018-01-25T04:51:07.720Z,16.73
2018-01-25T04:53:36.238Z,19.70
2018-01-25T04:56:04.821Z,15.33
2018-01-25T04:58:35.666Z,18.63
2018-01-25T05:01:12.408Z,20.73
2018-01-25T05:03:43.928Z,20.77
2018-01-25T05:06:13.915Z,20.30
2018-01-25T05:08:43.083Z,18.83
2018-01-25T05:11:11.381Z,18.17
2018-01-25T05:14:03.067Z,17.50
2018-01-25T05:16:31.387Z,18.53
2018-01-25T05:19:01.573Z,19.67
2018-01-25T05:21:32.824Z,18.37
2018-01-25T05:24:01.963Z,21.80
2018-01-25T05:26:31.278Z,20.00
2018-01-25T05:29:02.635Z,14.77
2018-01-25T05:31:34.735Z,16.87
2018-01-25T05:34:09.734Z,16.03
2018-01-25T05:36:40.447Z,13.30
2018-01-25T05:39:09.772Z,24.97
2018-01-25T05:41:38.120Z,19.47
2018-01-25T05:44:07.109Z,18.70
2018-01-25T05:46:35.375Z,17.27
2018-01-25T05:49:06.514Z,15.53
2018-01-25T05:51:40.219Z,16.43
2018-01-25T05:54:15.059Z,18.60
2018-01-25T05:56:44.360Z,18.20
2018-01-25T05:59:12.627Z,13.57
2018-01-25T06:01:41.730Z,18.83
2018-01-25T06:04:10.012Z,18.10
2018-01-25T06:06:38.297Z,22.77
2018-01-25T06:09:09.766Z,15.73
2018-01-25T06:11:40.487Z,15.70
2018-01-25T06:14:14.012Z,12.17
2018-01-25T06:16:43.993Z,19.60
2018-01-25T06:19:14.812Z,16.13
2018-01-25T06:21:43.743Z,17.03
2018-01-25T06:24:12.374Z,18.67
2018-01-25T06:26:41.094Z,19.03
2018-01-25T06:29:23.666Z,19.57
2018-01-25T06:31:51.977Z,18.67
2018-01-25T06:34:20.613Z,27.30
2018-01-25T06:36:53.901Z,24.67
2018-01-25T06:39:26.905Z,17.83
2018-01-25T06:41:56.767Z,18.30
2018-01-25T06:44:52.968Z,21.63
2018-01-25T06:47:23.956Z,20.77
2018-01-25T06:49:54.502Z,14.13
2018-01-25T06:52:24.249Z,21.17
2018-01-25T06:54:54.183Z,25.20
2018-01-25T06:57:27.234Z,25.33
2018-01-25T06:59:56.700Z,23.20
2018-01-25T07:02:27.363Z,25.30
2018-01-25T07:04:55.942Z,19.27
2018-01-25T07:07:25.993Z,17.90
2018-01-25T07:09:54.281Z,14.93
2018-01-25T07:12:26.524Z,21.97
2018-01-25T07:14:58.840Z,21.57
2018-01-25T07:17:28.908Z,14.37
2018-01-25T07:19:58.690Z,24.87
2018-01-25T07:22:28.220Z,18.43
2018-01-25T07:24:56.515Z,20.50
2018-01-25T07:27:25.097Z,17.43
2018-01-25T07:29:53.913Z,13.23
2018-01-25T07:32:24.790Z,24.13
2018-01-25T07:34:53.865Z,20.00
2018-01-25T07:37:22.144Z,23.53
2018-01-25T07:39:52.491Z,20.07
2018-01-25T07:42:20.797Z,17.03
2018-01-25T07:44:52.394Z,17.03
2018-01-25T07:47:25.856Z,21.10
2018-01-25T07:49:58.265Z,29.93
2018-01-25T07:52:28.643Z,26.90
2018-01-25T07:54:59.384Z,27.27
2018-01-25T07:57:34.755Z,23.30
2018-01-25T08:00:03.029Z,17.53
2018-01-25T08:02:34.352Z,16.27
2018-01-25T08:05:02.947Z,16.43
2018-01-25T08:07:31.223Z,14.40
2018-01-25T08:10:05.853Z,18.07
2018-01-25T08:12:38.784Z,15.43
2018-01-25T08:15:11.744Z,18.93
2018-01-25T08:17:42.426Z,18.40
2018-01-25T08:20:10.993Z,18.30
2018-01-25T08:22:39.337Z,17.17
2018-01-25T08:25:07.597Z,17.47
2018-01-25T08:27:35.873Z,17.40
2018-01-25T08:30:08.666Z,16.93
2018-01-25T08:32:59.279Z,20.30
2018-01-25T08:35:27.587Z,14.47
2018-01-25T08:37:56.147Z,18.97
2018-01-25T08:40:24.440Z,17.27
2018-01-25T08:42:59.209Z,11.00
2018-01-25T08:45:30.633Z,19.50
2018-01-25T08:48:01.271Z,13.07
2018-01-25T08:50:30.260Z,15.67
2018-01-25T08:52:58.580Z,13.87
2018-01-25T08:55:28.333Z,17.17
2018-01-25T08:57:57.444Z,14.07
2018-01-25T09:00:28.567Z,15.03
2018-01-25T09:03:03.520Z,15.03
2018-01-25T09:05:36.807Z,15.03
2018-01-25T09:08:13.069Z,14.67
2018-01-25T09:10:43.806Z,12.30
2018-01-25T09:13:12.179Z,10.90
2018-01-25T09:15:41.796Z,15.90
2018-01-25T09:18:17.157Z,17.50
2018-01-25T09:20:46.507Z,13.70
2018-01-25T09:23:14.938Z,12.33
2018-01-25T09:25:44.033Z,14.10
2018-01-25T09:28:16.554Z,9.70
2018-01-25T09:30:51.380Z,15.20
2018-01-25T09:33:24.925Z,14.30
2018-01-25T09:35:54.539Z,9.23
2018-01-25T09:38:26.074Z,18.07
2018-01-25T09:40:56.817Z,13.07
2018-01-25T09:43:25.839Z,11.63
2018-01-25T09:45:55.777Z,14.67
2018-01-25T09:48:24.046Z,17.70
2018-01-25T09:50:53.499Z,11.47
2018-01-25T09:53:24.113Z,16.77
2018-01-25T09:55:52.423Z,12.87
2018-01-25T09:58:21.220Z,21.80
2018-01-25T10:00:50.437Z,17.00
2018-01-25T10:03:32.272Z,12.20
2018-01-25T10:06:03.559Z,9.43
2018-01-25T10:08:33.957Z,12.37
2018-01-25T10:11:02.241Z,15.03
2018-01-25T10:13:31.102Z,9.67
2018-01-25T10:15:59.367Z,15.80
2018-01-25T10:18:28.274Z,13.57
2018-01-25T10:20:56.907Z,13.87
2018-01-25T10:23:26.920Z,20.43
2018-01-25T10:25:56.402Z,13.77
2018-01-25T10:28:25.022Z,11.80
2018-01-25T10:30:53.982Z,13.60
2018-01-25T10:33:23.729Z,18.80
2018-01-25T10:35:52.183Z,12.77
2018-01-25T10:38:21.070Z,13.43
2018-01-25T10:40:52.778Z,15.60
2018-01-25T10:43:25.560Z,13.67
2018-01-25T10:45:55.912Z,13.60
2018-01-25T10:49:06.897Z,12.00
2018-01-25T10:51:39.188Z,11.03
2018-01-25T10:54:09.147Z,13.53
2018-01-25T10:56:37.717Z,18.83
2018-01-25T10:59:06.406Z,12.17
2018-01-25T11:04:47.211Z,19.10
2018-01-25T11:07:15.524Z,15.17
2018-01-25T11:09:43.790Z,14.00
2018-01-25T11:12:17.355Z,10.43
2018-01-25T11:14:48.471Z,10.60
2018-01-25T11:17:17.205Z,10.63
2018-01-25T11:20:07.704Z,9.90
2018-01-25T11:22:38.491Z,7.70
2018-01-25T11:25:11.214Z,13.43
2018-01-25T11:27:44.641Z,11.53
2018-01-25T11:30:15.295Z,15.13
2018-01-25T11:33:33.943Z,15.40
2018-01-25T11:36:02.754Z,8.83
2018-01-25T11:38:31.819Z,10.83
2018-01-25T11:41:05.506Z,9.47
2018-01-25T11:43:35.812Z,10.90
2018-01-25T11:46:04.584Z,5.87
2018-01-25T11:48:33.076Z,11.73
2018-01-25T11:51:01.343Z,11.97
2018-01-25T11:53:32.933Z,14.37
2018-01-25T11:56:03.275Z,8.80
2018-01-25T11:58:31.858Z,11.93
2018-01-25T12:01:00.129Z,11.77
2018-01-25T12:03:28.434Z,12.27
2018-01-25T12:05:57.486Z,11.27
2018-01-25T12:08:26.244Z,13.97
2018-01-25T12:10:55.563Z,11.63
2018-01-25T12:13:24.427Z,13.43
2018-01-25T12:15:54.293Z,12.77
2018-01-25T12:18:23.557Z,9.13
2018-01-25T12:20:51.861Z,11.93
2018-01-25T12:23:21.483Z,9.77
2018-01-25T12:25:52.795Z,20.77
2018-01-25T12:28:21.405Z,12.53
2018-01-25T12:30:52.844Z,14.37
2018-01-25T12:33:21.558Z,18.80
2018-01-25T12:35:50.613Z,24.50
2018-01-25T12:38:19.426Z,8.47
2018-01-25T12:40:50.639Z,10.83
2018-01-25T12:43:23.083Z,13.90
2018-01-25T12:45:52.728Z,13.13
2018-01-25T12:48:23.563Z,12.97
2018-01-25T12:50:51.848Z,11.67
2018-01-25T12:53:20.165Z,10.63
2018-01-25T12:55:49.012Z,8.47
2018-01-25T12:58:21.451Z,10.43
2018-01-25T13:00:54.053Z,9.87
2018-01-25T13:03:38.037Z,8.67
2018-01-25T13:06:08.216Z,9.93
2018-01-25T13:08:36.851Z,8.80
2018-01-25T13:11:09.359Z,12.20
2018-01-25T13:13:39.548Z,8.23
2018-01-25T13:16:10.505Z,12.33
2018-01-25T13:18:38.776Z,8.93
2018-01-25T13:21:08.706Z,10.83
2018-01-25T13:23:37.948Z,7.80
2018-01-25T13:26:11.446Z,9.40
2018-01-25T13:28:42.462Z,8.10
2018-01-25T13:31:12.328Z,14.57
2018-01-25T13:34:15.263Z,9.60
2018-01-25T13:36:45.739Z,7.47
2018-01-25T13:39:16.309Z,10.97
2018-01-25T13:41:44.610Z,10.27
2018-01-25T13:44:15.717Z,6.20
2018-01-25T13:46:50.291Z,10.97
2018-01-25T13:49:21.448Z,16.93
2018-01-25T13:51:56.735Z,8.80
2018-01-25T13:54:30.700Z,9.83
2018-01-25T13:57:05.510Z,8.70
2018-01-25T13:59:37.832Z,5.97
2018-01-25T14:02:11.560Z,5.13
2018-01-25T14:05:03.430Z,5.50
2018-01-25T14:07:32.595Z,6.87
2018-01-25T14:10:01.743Z,2.07
2018-01-25T14:12:31.907Z,3.80
2018-01-25T14:15:05.603Z,3.33
2018-01-25T14:17:40.931Z,2.57
2018-01-25T14:20:09.491Z,3.33
2018-01-25T14:22:38.201Z,3.50
2018-01-25T14:25:06.755Z,1.87
2018-01-25T14:27:38.163Z,5.17
2018-01-25T14:30:06.428Z,3.90
2018-01-25T14:32:34.825Z,4.13
2018-01-25T14:35:10.290Z,4.43
2018-01-25T14:37:43.778Z,7.03
2018-01-25T14:40:17.289Z,4.83
2018-01-25T14:42:52.210Z,7.73
2018-01-25T14:45:21.241Z,9.20
2018-01-25T14:47:51.514Z,11.17
2018-01-25T14:50:21.209Z,13.77
2018-01-25T14:52:50.060Z,7.77
2018-01-25T14:55:19.625Z,8.30
2018-01-25T14:57:52.386Z,6.83
2018-01-25T15:00:23.126Z,6.10
2018-01-25T15:02:52.934Z,9.00
2018-01-25T15:05:23.589Z,5.23
2018-01-25T15:07:52.338Z,5.67
2018-01-25T15:10:20.601Z,6.97
2018-01-25T15:12:50.064Z,15.07
2018-01-25T15:15:25.088Z,13.60
2018-01-25T15:17:56.224Z,9.33
2018-01-25T15:20:29.668Z,10.47
2018-01-25T15:23:02.390Z,7.67
2018-01-25T15:25:37.775Z,6.00
2018-01-25T15:28:07.676Z,7.57
2018-01-25T15:30:36.336Z,8.63
2018-01-25T15:33:04.611Z,10.77
2018-01-25T15:39:01.497Z,8.33
2018-01-25T15:41:30.311Z,6.87
2018-01-25T15:43:59.652Z,12.17
2018-01-25T15:46:27.936Z,12.17
2018-01-25T15:48:56.921Z,9.50
2018-01-25T15:51:27.309Z,6.07
2018-01-25T15:53:59.673Z,7.97
2018-01-25T15:56:28.374Z,8.30
2018-01-25T15:58:59.580Z,9.80
2018-01-25T16:01:27.837Z,10.80
2018-01-25T16:03:57.530Z,10.00
2018-01-25T16:06:25.807Z,7.50
2018-01-25T16:08:56.518Z,7.67
2018-01-25T16:11:29.549Z,7.57
2018-01-25T16:13:58.416Z,11.47
2018-01-25T16:16:27.297Z,8.23
2018-01-25T16:18:55.885Z,12.27
2018-01-25T16:21:24.366Z,8.97
2018-01-25T16:23:54.304Z,11.17
2018-01-25T16:26:24.001Z,16.63
2018-01-25T16:28:53.377Z,13.40
2018-01-25T16:31:21.883Z,11.63
2018-01-25T16:33:51.571Z,13.20
2018-01-25T16:36:22.278Z,21.90
2018-01-25T16:38:51.527Z,12.17
2018-01-25T16:41:19.809Z,17.07
2018-01-25T16:43:48.352Z,20.77
2018-01-25T16:46:16.675Z,12.33
2018-01-25T16:48:44.974Z,13.97
2018-01-25T16:51:13.444Z,8.70
2018-01-25T16:53:42.250Z,8.97
2018-01-25T16:56:15.133Z,10.53
2018-01-25T16:58:44.308Z,15.67
2018-01-25T17:01:12.986Z,10.30
2018-01-25T17:03:44.349Z,10.97
2018-01-25T17:06:13.136Z,13.87
2018-01-25T17:08:41.645Z,11.30
2018-01-25T17:11:10.737Z,11.53
2018-01-25T17:13:40.976Z,11.17
2018-01-25T17:16:09.242Z,11.73
2018-01-25T17:18:41.156Z,13.27
2018-01-25T17:21:14.186Z,8.47
2018-01-25T17:23:47.895Z,11.73
2018-01-25T17:26:20.631Z,13.27
2018-01-25T17:28:52.826Z,10.80
2018-01-25T17:31:21.875Z,11.83
2018-01-25T17:33:50.141Z,14.57
2018-01-25T17:37:00.824Z,13.97
2018-01-25T17:39:29.990Z,13.57
2018-01-25T17:41:59.332Z,14.27
2018-01-25T17:44:28.427Z,10.23
2018-01-25T17:46:57.671Z,13.37
2018-01-25T17:49:27.329Z,17.47
2018-01-25T17:51:57.168Z,13.00
2018-01-25T17:54:26.391Z,8.00
2018-01-25T17:56:54.669Z,16.73
2018-01-25T17:59:28.445Z,8.80
2018-01-25T18:01:57.921Z,13.33
2018-01-25T18:04:28.724Z,14.23
2018-01-25T18:06:58.704Z,14.40
2018-01-25T18:09:27.002Z,10.10
2018-01-25T18:11:55.288Z,13.37
2018-01-25T18:14:24.334Z,10.57
2018-01-25T18:16:56.691Z,11.60
2018-01-25T18:19:29.111Z,8.90
2018-01-25T18:22:25.098Z,12.53
2018-01-25T18:24:53.456Z,5.83
2018-01-25T18:27:23.601Z,13.10
2018-01-25T18:29:55.069Z,13.40
2018-01-25T18:32:24.624Z,9.33
2018-01-25T18:34:58.727Z,11.47
2018-01-25T18:37:29.748Z,8.40
2018-01-25T18:40:07.367Z,11.77
2018-01-25T18:42:36.926Z,6.67
2018-01-25T18:45:05.865Z,7.47
2018-01-25T18:47:36.500Z,11.00
2018-01-25T18:50:04.766Z,8.13
2018-01-25T18:52:57.057Z,9.83
2018-01-25T18:55:25.530Z,9.63
2018-01-25T18:57:53.908Z,9.40
2018-01-25T19:00:22.194Z,11.53
2018-01-25T19:02:50.631Z,10.10
2018-01-25T19:05:20.536Z,8.93
2018-01-25T19:07:52.597Z,8.30
2018-01-25T19:10:23.681Z,6.37
2018-01-25T19:13:01.528Z,7.97
2018-01-25T19:15:36.677Z,5.07
2018-01-25T19:18:08.330Z,10.17
2018-01-25T19:20:37.449Z,5.90
2018-01-25T19:23:08.958Z,11.17
2018-01-25T19:25:38.123Z,8.33
2018-01-25T19:28:09.796Z,9.83
2018-01-25T19:30:38.900Z,10.57
2018-01-25T19:33:07.517Z,9.87
2018-01-25T19:35:40.945Z,7.83
2018-01-25T19:38:18.184Z,17.30
2018-01-25T19:40:52.501Z,12.60
2018-01-25T19:43:24.567Z,14.23
2018-01-25T19:45:57.512Z,7.87
2018-01-25T19:48:25.818Z,11.63
2018-01-25T19:50:55.367Z,10.80
2018-01-25T19:53:23.956Z,10.90
2018-01-25T19:55:52.274Z,16.00
2018-01-25T19:58:22.107Z,11.57
2018-01-25T20:00:53.087Z,10.67
2018-01-25T20:03:22.410Z,13.53
2018-01-25T20:05:50.679Z,10.23
2018-01-25T20:08:55.061Z,9.93
2018-01-25T20:11:24.132Z,14.50
2018-01-25T20:13:53.179Z,9.53
2018-01-25T20:16:25.525Z,13.50
2018-01-25T20:18:58.718Z,13.33
2018-01-25T20:21:30.828Z,16.43
2018-01-25T20:24:00.117Z,8.97
2018-01-25T20:26:33.726Z,10.13
2018-01-25T20:29:02.814Z,11.87
2018-01-25T20:31:31.912Z,13.30
2018-01-25T20:34:00.263Z,11.00
2018-01-25T20:36:30.579Z,14.43
2018-01-25T20:39:07.272Z,14.70
2018-01-25T20:41:39.052Z,16.57
2018-01-25T20:44:11.598Z,12.83
2018-01-25T20:46:45.614Z,10.00
2018-01-25T20:49:15.134Z,14.67
2018-01-25T20:51:43.509Z,10.67
2018-01-25T20:54:29.331Z,13.40
2018-01-25T20:57:03.832Z,12.07
2018-01-25T20:59:35.948Z,10.10
2018-01-25T21:02:04.305Z,9.57
2018-01-25T21:04:33.154Z,7.13
2018-01-25T21:07:02.153Z,9.93
2018-01-25T21:09:30.496Z,13.83
2018-01-25T21:11:59.829Z,11.10
2018-01-25T21:14:30.684Z,9.13
2018-01-25T21:16:59.653Z,14.37
2018-01-25T21:19:30.097Z,7.77
2018-01-25T21:22:04.537Z,9.57
2018-01-25T21:27:34.939Z,14.57
2018-01-25T21:30:03.941Z,7.13
2018-01-25T21:32:33.861Z,5.97
2018-01-25T21:35:02.470Z,7.17
2018-01-25T21:37:34.011Z,11.50
2018-01-25T21:40:03.276Z,7.10
2018-01-25T21:42:31.666Z,9.90
2018-01-25T21:45:00.452Z,8.83
2018-01-25T21:47:28.762Z,7.67
2018-01-25T21:49:57.686Z,6.83
2018-01-25T21:52:30.818Z,6.17
2018-01-25T21:55:07.637Z,7.03
2018-01-25T21:57:40.185Z,11.90
2018-01-25T22:00:10.402Z,7.70
2018-01-25T22:02:41.232Z,8.77
2018-01-25T22:05:11.249Z,7.47
2018-01-25T22:07:39.542Z,8.53
2018-01-25T22:10:08.310Z,6.33
2018-01-25T22:12:39.734Z,8.60
2018-01-25T22:15:10.585Z,13.70
2018-01-25T22:17:45.780Z,8.33
2018-01-25T22:20:19.636Z,7.83
2018-01-25T22:22:49.850Z,8.00
2018-01-25T22:25:19.885Z,6.83
2018-01-25T22:27:53.729Z,9.77
2018-01-25T22:30:25.212Z,15.63
2018-01-25T22:32:53.510Z,8.80
2018-01-25T22:35:22.698Z,9.90
2018-01-25T22:37:52.588Z,8.97
2018-01-25T22:40:25.004Z,10.97
2018-01-25T22:42:56.946Z,12.77
2018-01-25T22:45:25.945Z,7.40
2018-01-25T22:47:54.470Z,9.73
2018-01-25T22:50:23.536Z,8.87
2018-01-25T22:52:51.823Z,5.80
2018-01-25T22:55:23.289Z,12.73
2018-01-25T22:57:57.138Z,16.43
2018-01-25T23:00:37.196Z,9.83
2018-01-25T23:03:05.664Z,9.87
2018-01-25T23:05:36.295Z,9.57
2018-01-25T23:08:09.843Z,8.90
2018-01-25T23:10:39.303Z,9.37
2018-01-25T23:13:09.754Z,9.80
2018-01-25T23:15:39.833Z,10.13
2018-01-25T23:18:13.434Z,10.13
2018-01-25T23:20:41.986Z,5.90
2018-01-25T23:23:10.922Z,12.30
2018-01-25T23:25:43.536Z,12.77
2018-01-25T23:28:14.563Z,8.73
2018-01-25T23:30:46.419Z,11.60
2018-01-25T23:33:15.465Z,12.73
2018-01-25T23:35:44.486Z,9.73
2018-01-25T23:38:13.487Z,12.00
2018-01-25T23:40:43.181Z,10.17
2018-01-25T23:43:19.114Z,9.33
2018-01-25T23:45:51.453Z,11.47
2018-01-25T23:48:20.438Z,14.60
2018-01-25T23:50:50.346Z,10.27
2018-01-25T23:53:19.945Z,11.20
2018-01-25T23:55:52.445Z,8.70
2018-01-25T23:58:20.734Z,6.47
